sensor_id;sensor_type;location;lat;lon;timestamp;P1;durP1;ratioP1;P2;durP2;ratioP2
78718;SDS011;68046;53.334;9.538;2024-02-23T00:01:20;2.55;;;1.20;;
78718;SDS011;68046;53.334;9.538;2024-02-23T00:03:46;1.88;;;1.30;;
78718;SDS011;68046;53.334;9.538;2024-02-23T00:06:11;5.40;;;1.95;;
78718;SDS011;68046;53.334;9.538;2024-02-23T00:08:37;4.75;;;1.40;;
78718;SDS011;68046;53.334;9.538;2024-02-23T00:11:02;1.52;;;1.05;;
78718;SDS011;68046;53.334;9.538;2024-02-23T00:13:28;1.58;;;1.10;;
78718;SDS011;68046;53.334;9.538;2024-02-23T00:15:54;2.58;;;1.23;;
78718;SDS011;68046;53.334;9.538;2024-02-23T00:18:20;2.20;;;0.80;;
78718;SDS011;68046;53.334;9.538;2024-02-23T00:20:46;1.10;;;1.00;;
78718;SDS011;68046;53.334;9.538;2024-02-23T00:23:12;1.40;;;1.10;;
78718;SDS011;68046;53.334;9.538;2024-02-23T00:25:37;7.53;;;0.82;;
78718;SDS011;68046;53.334;9.538;2024-02-23T00:28:03;2.20;;;1.13;;
78718;SDS011;68046;53.334;9.538;2024-02-23T00:30:29;2.63;;;1.42;;
78718;SDS011;68046;53.334;9.538;2024-02-23T00:32:54;0.93;;;0.60;;
78718;SDS011;68046;53.334;9.538;2024-02-23T00:35:21;4.43;;;1.10;;
78718;SDS011;68046;53.334;9.538;2024-02-23T00:37:47;2.70;;;1.13;;
78718;SDS011;68046;53.334;9.538;2024-02-23T00:40:12;4.63;;;0.77;;
78718;SDS011;68046;53.334;9.538;2024-02-23T00:42:39;0.45;;;0.40;;
78718;SDS011;68046;53.334;9.538;2024-02-23T00:45:04;0.47;;;0.28;;
78718;SDS011;68046;53.334;9.538;2024-02-23T00:47:31;0.50;;;0.50;;
78718;SDS011;68046;53.334;9.538;2024-02-23T00:49:56;0.57;;;0.50;;
78718;SDS011;68046;53.334;9.538;2024-02-23T00:52:23;0.95;;;0.40;;
78718;SDS011;68046;53.334;9.538;2024-02-23T00:54:48;0.60;;;0.60;;
78718;SDS011;68046;53.334;9.538;2024-02-23T00:57:14;1.60;;;0.73;;
78718;SDS011;68046;53.334;9.538;2024-02-23T00:59:39;1.92;;;0.90;;
78718;SDS011;68046;53.334;9.538;2024-02-23T01:02:05;0.98;;;0.63;;
78718;SDS011;68046;53.334;9.538;2024-02-23T01:04:30;0.70;;;0.70;;
78718;SDS011;68046;53.334;9.538;2024-02-23T01:06:57;1.63;;;0.85;;
78718;SDS011;68046;53.334;9.538;2024-02-23T01:09:24;0.98;;;0.90;;
78718;SDS011;68046;53.334;9.538;2024-02-23T01:11:49;1.42;;;0.80;;
78718;SDS011;68046;53.334;9.538;2024-02-23T01:14:15;1.10;;;0.80;;
78718;SDS011;68046;53.334;9.538;2024-02-23T01:16:40;0.73;;;0.73;;
78718;SDS011;68046;53.334;9.538;2024-02-23T01:19:06;0.75;;;0.50;;
78718;SDS011;68046;53.334;9.538;2024-02-23T01:21:32;1.50;;;1.10;;
78718;SDS011;68046;53.334;9.538;2024-02-23T01:23:57;3.03;;;0.65;;
78718;SDS011;68046;53.334;9.538;2024-02-23T01:26:24;1.38;;;1.00;;
78718;SDS011;68046;53.334;9.538;2024-02-23T01:28:49;0.90;;;0.70;;
78718;SDS011;68046;53.334;9.538;2024-02-23T01:31:15;0.50;;;0.50;;
78718;SDS011;68046;53.334;9.538;2024-02-23T01:33:40;1.40;;;0.98;;
78718;SDS011;68046;53.334;9.538;2024-02-23T01:36:06;1.17;;;1.05;;
78718;SDS011;68046;53.334;9.538;2024-02-23T01:38:32;1.67;;;1.02;;
78718;SDS011;68046;53.334;9.538;2024-02-23T01:40:57;0.85;;;0.68;;
78718;SDS011;68046;53.334;9.538;2024-02-23T01:43:24;1.25;;;0.73;;
78718;SDS011;68046;53.334;9.538;2024-02-23T01:45:50;2.25;;;0.80;;
78718;SDS011;68046;53.334;9.538;2024-02-23T01:48:16;0.80;;;0.77;;
78718;SDS011;68046;53.334;9.538;2024-02-23T01:50:42;1.20;;;0.90;;
78718;SDS011;68046;53.334;9.538;2024-02-23T01:53:08;0.90;;;0.73;;
78718;SDS011;68046;53.334;9.538;2024-02-23T01:55:35;0.43;;;0.25;;
78718;SDS011;68046;53.334;9.538;2024-02-23T01:58:01;0.40;;;0.40;;
78718;SDS011;68046;53.334;9.538;2024-02-23T02:00:29;0.30;;;0.30;;
78718;SDS011;68046;53.334;9.538;2024-02-23T02:02:55;0.85;;;0.52;;
78718;SDS011;68046;53.334;9.538;2024-02-23T02:05:21;0.60;;;0.60;;
78718;SDS011;68046;53.334;9.538;2024-02-23T02:07:46;0.45;;;0.40;;
78718;SDS011;68046;53.334;9.538;2024-02-23T02:10:14;0.50;;;0.50;;
78718;SDS011;68046;53.334;9.538;2024-02-23T02:12:39;0.55;;;0.55;;
78718;SDS011;68046;53.334;9.538;2024-02-23T02:15:05;0.93;;;0.57;;
78718;SDS011;68046;53.334;9.538;2024-02-23T02:17:33;0.68;;;0.43;;
78718;SDS011;68046;53.334;9.538;2024-02-23T02:19:59;2.22;;;0.60;;
78718;SDS011;68046;53.334;9.538;2024-02-23T02:22:27;1.08;;;0.73;;
78718;SDS011;68046;53.334;9.538;2024-02-23T02:24:53;0.63;;;0.55;;
78718;SDS011;68046;53.334;9.538;2024-02-23T02:27:18;4.38;;;0.85;;
78718;SDS011;68046;53.334;9.538;2024-02-23T02:29:44;4.20;;;1.00;;
78718;SDS011;68046;53.334;9.538;2024-02-23T02:32:09;3.53;;;0.80;;
78718;SDS011;68046;53.334;9.538;2024-02-23T02:34:36;0.88;;;0.57;;
78718;SDS011;68046;53.334;9.538;2024-02-23T02:37:01;5.13;;;0.90;;
78718;SDS011;68046;53.334;9.538;2024-02-23T02:39:27;0.60;;;0.60;;
78718;SDS011;68046;53.334;9.538;2024-02-23T02:41:53;2.17;;;0.82;;
78718;SDS011;68046;53.334;9.538;2024-02-23T02:44:18;0.98;;;0.70;;
78718;SDS011;68046;53.334;9.538;2024-02-23T02:46:44;2.30;;;0.70;;
78718;SDS011;68046;53.334;9.538;2024-02-23T02:49:09;0.57;;;0.57;;
78718;SDS011;68046;53.334;9.538;2024-02-23T02:51:36;0.60;;;0.45;;
78718;SDS011;68046;53.334;9.538;2024-02-23T02:54:02;2.40;;;0.70;;
78718;SDS011;68046;53.334;9.538;2024-02-23T02:56:27;0.77;;;0.68;;
78718;SDS011;68046;53.334;9.538;2024-02-23T02:58:53;1.70;;;1.40;;
78718;SDS011;68046;53.334;9.538;2024-02-23T03:01:18;1.15;;;0.85;;
78718;SDS011;68046;53.334;9.538;2024-02-23T03:03:44;1.33;;;0.88;;
78718;SDS011;68046;53.334;9.538;2024-02-23T03:06:09;7.25;;;1.05;;
78718;SDS011;68046;53.334;9.538;2024-02-23T03:08:36;0.93;;;0.60;;
78718;SDS011;68046;53.334;9.538;2024-02-23T03:11:02;1.48;;;0.93;;
78718;SDS011;68046;53.334;9.538;2024-02-23T03:13:27;2.15;;;0.80;;
78718;SDS011;68046;53.334;9.538;2024-02-23T03:15:53;0.17;;;0.15;;
78718;SDS011;68046;53.334;9.538;2024-02-23T03:18:18;0.82;;;0.60;;
78718;SDS011;68046;53.334;9.538;2024-02-23T03:20:44;1.67;;;0.28;;
78718;SDS011;68046;53.334;9.538;2024-02-23T03:23:09;0.60;;;0.47;;
78718;SDS011;68046;53.334;9.538;2024-02-23T03:25:37;0.80;;;0.65;;
78718;SDS011;68046;53.334;9.538;2024-02-23T03:28:02;0.30;;;0.30;;
78718;SDS011;68046;53.334;9.538;2024-02-23T03:30:28;0.40;;;0.40;;
78718;SDS011;68046;53.334;9.538;2024-02-23T03:32:54;0.70;;;0.70;;
78718;SDS011;68046;53.334;9.538;2024-02-23T03:35:19;0.77;;;0.77;;
78718;SDS011;68046;53.334;9.538;2024-02-23T03:37:45;0.63;;;0.63;;
78718;SDS011;68046;53.334;9.538;2024-02-23T03:40:10;1.10;;;0.80;;
78718;SDS011;68046;53.334;9.538;2024-02-23T03:42:38;0.98;;;0.88;;
78718;SDS011;68046;53.334;9.538;2024-02-23T03:45:04;1.40;;;0.85;;
78718;SDS011;68046;53.334;9.538;2024-02-23T03:47:30;1.45;;;1.05;;
78718;SDS011;68046;53.334;9.538;2024-02-23T03:49:55;1.83;;;1.10;;
78718;SDS011;68046;53.334;9.538;2024-02-23T03:52:21;1.58;;;1.00;;
78718;SDS011;68046;53.334;9.538;2024-02-23T03:54:46;1.40;;;1.05;;
78718;SDS011;68046;53.334;9.538;2024-02-23T03:57:12;1.88;;;1.13;;
78718;SDS011;68046;53.334;9.538;2024-02-23T03:59:39;1.27;;;0.93;;
78718;SDS011;68046;53.334;9.538;2024-02-23T04:02:04;2.33;;;1.05;;
78718;SDS011;68046;53.334;9.538;2024-02-23T04:04:30;1.42;;;1.00;;
78718;SDS011;68046;53.334;9.538;2024-02-23T04:06:56;1.58;;;0.63;;
78718;SDS011;68046;53.334;9.538;2024-02-23T04:09:21;1.52;;;0.47;;
78718;SDS011;68046;53.334;9.538;2024-02-23T04:11:47;1.20;;;0.80;;
78718;SDS011;68046;53.334;9.538;2024-02-23T04:14:13;1.77;;;1.17;;
78718;SDS011;68046;53.334;9.538;2024-02-23T04:16:40;1.52;;;0.90;;
78718;SDS011;68046;53.334;9.538;2024-02-23T04:19:05;2.20;;;1.10;;
78718;SDS011;68046;53.334;9.538;2024-02-23T04:21:31;1.45;;;0.98;;
78718;SDS011;68046;53.334;9.538;2024-02-23T04:23:56;3.28;;;1.15;;
78718;SDS011;68046;53.334;9.538;2024-02-23T04:26:22;2.15;;;0.77;;
78718;SDS011;68046;53.334;9.538;2024-02-23T04:28:48;4.60;;;1.65;;
78718;SDS011;68046;53.334;9.538;2024-02-23T04:31:13;4.13;;;1.77;;
78718;SDS011;68046;53.334;9.538;2024-02-23T04:33:40;2.22;;;1.52;;
78718;SDS011;68046;53.334;9.538;2024-02-23T04:36:06;6.47;;;1.65;;
78718;SDS011;68046;53.334;9.538;2024-02-23T04:38:32;2.05;;;1.58;;
78718;SDS011;68046;53.334;9.538;2024-02-23T04:40:57;2.78;;;1.80;;
78718;SDS011;68046;53.334;9.538;2024-02-23T04:43:23;2.22;;;1.52;;
78718;SDS011;68046;53.334;9.538;2024-02-23T04:45:49;2.65;;;1.60;;
78718;SDS011;68046;53.334;9.538;2024-02-23T04:48:14;7.43;;;2.00;;
78718;SDS011;68046;53.334;9.538;2024-02-23T04:50:41;9.30;;;1.77;;
78718;SDS011;68046;53.334;9.538;2024-02-23T04:53:07;2.67;;;1.48;;
78718;SDS011;68046;53.334;9.538;2024-02-23T04:55:32;3.22;;;1.65;;
78718;SDS011;68046;53.334;9.538;2024-02-23T04:57:58;5.95;;;1.95;;
78718;SDS011;68046;53.334;9.538;2024-02-23T05:00:23;4.10;;;1.85;;
78718;SDS011;68046;53.334;9.538;2024-02-23T05:02:49;4.03;;;1.85;;
78718;SDS011;68046;53.334;9.538;2024-02-23T05:05:14;4.30;;;1.60;;
78718;SDS011;68046;53.334;9.538;2024-02-23T05:07:41;4.45;;;1.70;;
78718;SDS011;68046;53.334;9.538;2024-02-23T05:10:07;4.43;;;1.25;;
78718;SDS011;68046;53.334;9.538;2024-02-23T05:12:34;2.20;;;1.38;;
78718;SDS011;68046;53.334;9.538;2024-02-23T05:15:00;4.85;;;1.50;;
78718;SDS011;68046;53.334;9.538;2024-02-23T05:17:25;6.55;;;1.80;;
78718;SDS011;68046;53.334;9.538;2024-02-23T05:19:51;2.88;;;1.55;;
78718;SDS011;68046;53.334;9.538;2024-02-23T05:22:16;2.85;;;1.75;;
78718;SDS011;68046;53.334;9.538;2024-02-23T05:24:43;4.25;;;1.40;;
78718;SDS011;68046;53.334;9.538;2024-02-23T05:27:09;2.42;;;1.60;;
78718;SDS011;68046;53.334;9.538;2024-02-23T05:29:34;1.52;;;1.13;;
78718;SDS011;68046;53.334;9.538;2024-02-23T05:32:00;2.70;;;1.35;;
78718;SDS011;68046;53.334;9.538;2024-02-23T05:34:25;2.05;;;1.20;;
78718;SDS011;68046;53.334;9.538;2024-02-23T05:36:51;2.55;;;1.27;;
78718;SDS011;68046;53.334;9.538;2024-02-23T05:39:17;5.95;;;1.52;;
78718;SDS011;68046;53.334;9.538;2024-02-23T05:41:43;1.77;;;1.13;;
78718;SDS011;68046;53.334;9.538;2024-02-23T05:44:09;3.80;;;1.50;;
78718;SDS011;68046;53.334;9.538;2024-02-23T05:46:35;4.50;;;1.63;;
78718;SDS011;68046;53.334;9.538;2024-02-23T05:49:02;1.00;;;0.80;;
78718;SDS011;68046;53.334;9.538;2024-02-23T05:51:28;1.95;;;1.30;;
78718;SDS011;68046;53.334;9.538;2024-02-23T05:53:54;2.50;;;1.30;;
78718;SDS011;68046;53.334;9.538;2024-02-23T05:56:20;2.60;;;1.13;;
78718;SDS011;68046;53.334;9.538;2024-02-23T05:58:46;3.13;;;1.10;;
78718;SDS011;68046;53.334;9.538;2024-02-23T06:01:12;1.52;;;1.20;;
78718;SDS011;68046;53.334;9.538;2024-02-23T06:03:37;1.30;;;0.88;;
78718;SDS011;68046;53.334;9.538;2024-02-23T06:06:06;3.67;;;1.08;;
78718;SDS011;68046;53.334;9.538;2024-02-23T06:08:32;3.78;;;1.23;;
78718;SDS011;68046;53.334;9.538;2024-02-23T06:10:57;4.72;;;1.58;;
78718;SDS011;68046;53.334;9.538;2024-02-23T06:13:23;1.33;;;1.00;;
78718;SDS011;68046;53.334;9.538;2024-02-23T06:15:50;6.10;;;1.27;;
78718;SDS011;68046;53.334;9.538;2024-02-23T06:18:15;2.15;;;1.30;;
78718;SDS011;68046;53.334;9.538;2024-02-23T06:20:41;1.95;;;1.15;;
78718;SDS011;68046;53.334;9.538;2024-02-23T06:23:06;5.15;;;1.95;;
78718;SDS011;68046;53.334;9.538;2024-02-23T06:25:32;2.47;;;1.70;;
78718;SDS011;68046;53.334;9.538;2024-02-23T06:27:57;3.15;;;1.65;;
78718;SDS011;68046;53.334;9.538;2024-02-23T06:30:23;3.50;;;1.40;;
78718;SDS011;68046;53.334;9.538;2024-02-23T06:32:50;4.47;;;2.28;;
78718;SDS011;68046;53.334;9.538;2024-02-23T06:35:15;8.35;;;1.90;;
78718;SDS011;68046;53.334;9.538;2024-02-23T06:37:41;2.53;;;1.50;;
78718;SDS011;68046;53.334;9.538;2024-02-23T06:40:06;5.43;;;1.92;;
78718;SDS011;68046;53.334;9.538;2024-02-23T06:42:32;2.60;;;1.90;;
78718;SDS011;68046;53.334;9.538;2024-02-23T06:44:58;5.45;;;2.03;;
78718;SDS011;68046;53.334;9.538;2024-02-23T06:47:24;6.35;;;2.13;;
78718;SDS011;68046;53.334;9.538;2024-02-23T06:49:50;2.38;;;1.60;;
78718;SDS011;68046;53.334;9.538;2024-02-23T06:52:16;6.63;;;2.22;;
78718;SDS011;68046;53.334;9.538;2024-02-23T06:54:41;3.85;;;2.08;;
78718;SDS011;68046;53.334;9.538;2024-02-23T06:57:07;9.35;;;2.10;;
78718;SDS011;68046;53.334;9.538;2024-02-23T06:59:32;3.92;;;2.22;;
78718;SDS011;68046;53.334;9.538;2024-02-23T07:01:58;5.78;;;1.92;;
78718;SDS011;68046;53.334;9.538;2024-02-23T07:04:23;3.33;;;2.10;;
78718;SDS011;68046;53.334;9.538;2024-02-23T07:06:50;4.47;;;1.80;;
78718;SDS011;68046;53.334;9.538;2024-02-23T07:09:16;5.30;;;1.80;;
78718;SDS011;68046;53.334;9.538;2024-02-23T07:11:41;6.30;;;1.42;;
78718;SDS011;68046;53.334;9.538;2024-02-23T07:14:07;4.88;;;1.90;;
78718;SDS011;68046;53.334;9.538;2024-02-23T07:16:32;11.20;;;2.42;;
78718;SDS011;68046;53.334;9.538;2024-02-23T07:18:58;6.53;;;1.77;;
78718;SDS011;68046;53.334;9.538;2024-02-23T07:21:23;2.65;;;1.80;;
78718;SDS011;68046;53.334;9.538;2024-02-23T07:23:50;3.40;;;2.45;;
78718;SDS011;68046;53.334;9.538;2024-02-23T07:26:16;4.57;;;1.85;;
78718;SDS011;68046;53.334;9.538;2024-02-23T07:28:41;5.95;;;2.25;;
78718;SDS011;68046;53.334;9.538;2024-02-23T07:31:07;6.00;;;2.13;;
78718;SDS011;68046;53.334;9.538;2024-02-23T07:33:32;3.63;;;1.50;;
78718;SDS011;68046;53.334;9.538;2024-02-23T07:35:58;2.78;;;1.83;;
78718;SDS011;68046;53.334;9.538;2024-02-23T07:38:23;2.75;;;1.90;;
78718;SDS011;68046;53.334;9.538;2024-02-23T07:40:50;3.28;;;2.33;;
78718;SDS011;68046;53.334;9.538;2024-02-23T07:43:16;3.20;;;1.92;;
78718;SDS011;68046;53.334;9.538;2024-02-23T07:45:41;1.77;;;1.02;;
78718;SDS011;68046;53.334;9.538;2024-02-23T07:48:07;3.28;;;1.45;;
78718;SDS011;68046;53.334;9.538;2024-02-23T07:50:32;4.78;;;1.60;;
78718;SDS011;68046;53.334;9.538;2024-02-23T07:52:58;2.72;;;1.58;;
78718;SDS011;68046;53.334;9.538;2024-02-23T07:55:23;5.90;;;1.92;;
78718;SDS011;68046;53.334;9.538;2024-02-23T07:57:50;7.07;;;1.73;;
78718;SDS011;68046;53.334;9.538;2024-02-23T08:00:16;3.22;;;1.65;;
78718;SDS011;68046;53.334;9.538;2024-02-23T08:02:42;2.75;;;1.60;;
78718;SDS011;68046;53.334;9.538;2024-02-23T08:05:07;5.18;;;1.85;;
78718;SDS011;68046;53.334;9.538;2024-02-23T08:07:33;3.15;;;1.70;;
78718;SDS011;68046;53.334;9.538;2024-02-23T08:09:58;5.03;;;1.92;;
78718;SDS011;68046;53.334;9.538;2024-02-23T08:12:25;7.93;;;1.70;;
78718;SDS011;68046;53.334;9.538;2024-02-23T08:14:52;5.60;;;1.70;;
78718;SDS011;68046;53.334;9.538;2024-02-23T08:17:18;6.57;;;1.95;;
78718;SDS011;68046;53.334;9.538;2024-02-23T08:19:43;6.05;;;1.38;;
78718;SDS011;68046;53.334;9.538;2024-02-23T08:22:09;4.32;;;1.70;;
78718;SDS011;68046;53.334;9.538;2024-02-23T08:24:34;6.88;;;1.67;;
78718;SDS011;68046;53.334;9.538;2024-02-23T08:27:00;5.47;;;2.13;;
78718;SDS011;68046;53.334;9.538;2024-02-23T08:29:25;4.32;;;1.50;;
78718;SDS011;68046;53.334;9.538;2024-02-23T08:31:52;3.83;;;1.60;;
78718;SDS011;68046;53.334;9.538;2024-02-23T08:34:17;6.88;;;1.52;;
78718;SDS011;68046;53.334;9.538;2024-02-23T08:36:43;5.95;;;2.00;;
78718;SDS011;68046;53.334;9.538;2024-02-23T08:39:08;3.30;;;1.60;;
78718;SDS011;68046;53.334;9.538;2024-02-23T08:41:34;6.25;;;1.70;;
78718;SDS011;68046;53.334;9.538;2024-02-23T08:43:59;9.18;;;1.95;;
78718;SDS011;68046;53.334;9.538;2024-02-23T08:46:25;5.63;;;1.40;;
78718;SDS011;68046;53.334;9.538;2024-02-23T08:48:52;5.60;;;1.60;;
78718;SDS011;68046;53.334;9.538;2024-02-23T08:51:17;5.90;;;1.50;;
78718;SDS011;68046;53.334;9.538;2024-02-23T08:53:43;6.35;;;1.85;;
78718;SDS011;68046;53.334;9.538;2024-02-23T08:56:08;5.72;;;1.52;;
78718;SDS011;68046;53.334;9.538;2024-02-23T08:58:34;10.45;;;1.98;;
78718;SDS011;68046;53.334;9.538;2024-02-23T09:00:59;9.80;;;1.88;;
78718;SDS011;68046;53.334;9.538;2024-02-23T09:03:25;3.95;;;1.40;;
78718;SDS011;68046;53.334;9.538;2024-02-23T09:05:52;5.25;;;1.60;;
78718;SDS011;68046;53.334;9.538;2024-02-23T09:08:17;3.75;;;1.60;;
78718;SDS011;68046;53.334;9.538;2024-02-23T09:10:43;3.55;;;1.60;;
78718;SDS011;68046;53.334;9.538;2024-02-23T09:13:08;4.95;;;1.67;;
78718;SDS011;68046;53.334;9.538;2024-02-23T09:15:34;8.02;;;1.60;;
78718;SDS011;68046;53.334;9.538;2024-02-23T09:17:59;4.07;;;1.30;;
78718;SDS011;68046;53.334;9.538;2024-02-23T09:20:25;7.32;;;2.08;;
78718;SDS011;68046;53.334;9.538;2024-02-23T09:22:52;5.32;;;1.83;;
78718;SDS011;68046;53.334;9.538;2024-02-23T09:25:18;8.35;;;1.75;;
78718;SDS011;68046;53.334;9.538;2024-02-23T09:27:43;4.88;;;1.67;;
78718;SDS011;68046;53.334;9.538;2024-02-23T09:30:09;8.48;;;1.85;;
78718;SDS011;68046;53.334;9.538;2024-02-23T09:32:36;4.53;;;2.08;;
78718;SDS011;68046;53.334;9.538;2024-02-23T09:35:01;6.60;;;2.17;;
78718;SDS011;68046;53.334;9.538;2024-02-23T09:37:27;8.15;;;2.00;;
78718;SDS011;68046;53.334;9.538;2024-02-23T09:39:54;3.80;;;1.70;;
78718;SDS011;68046;53.334;9.538;2024-02-23T09:42:19;5.38;;;1.80;;
78718;SDS011;68046;53.334;9.538;2024-02-23T09:44:48;3.75;;;1.58;;
78718;SDS011;68046;53.334;9.538;2024-02-23T09:47:22;2.65;;;1.60;;
78718;SDS011;68046;53.334;9.538;2024-02-23T09:49:48;3.08;;;1.63;;
78718;SDS011;68046;53.334;9.538;2024-02-23T09:52:16;6.68;;;2.22;;
78718;SDS011;68046;53.334;9.538;2024-02-23T09:54:44;4.63;;;2.15;;
78718;SDS011;68046;53.334;9.538;2024-02-23T09:57:11;6.28;;;1.90;;
78718;SDS011;68046;53.334;9.538;2024-02-23T09:59:39;3.70;;;2.13;;
78718;SDS011;68046;53.334;9.538;2024-02-23T10:02:06;4.93;;;1.70;;
78718;SDS011;68046;53.334;9.538;2024-02-23T10:04:33;4.63;;;1.92;;
78718;SDS011;68046;53.334;9.538;2024-02-23T10:06:59;5.07;;;1.70;;
78718;SDS011;68046;53.334;9.538;2024-02-23T10:09:24;5.53;;;1.33;;
78718;SDS011;68046;53.334;9.538;2024-02-23T10:11:51;3.97;;;1.90;;
78718;SDS011;68046;53.334;9.538;2024-02-23T10:14:18;7.15;;;2.30;;
78718;SDS011;68046;53.334;9.538;2024-02-23T10:16:44;4.93;;;1.63;;
78718;SDS011;68046;53.334;9.538;2024-02-23T10:19:10;6.35;;;1.85;;
78718;SDS011;68046;53.334;9.538;2024-02-23T10:21:35;6.43;;;2.33;;
78718;SDS011;68046;53.334;9.538;2024-02-23T10:24:01;2.85;;;1.67;;
78718;SDS011;68046;53.334;9.538;2024-02-23T10:26:26;6.05;;;1.50;;
78718;SDS011;68046;53.334;9.538;2024-02-23T10:28:52;6.60;;;1.90;;
78718;SDS011;68046;53.334;9.538;2024-02-23T10:31:19;3.65;;;1.73;;
78718;SDS011;68046;53.334;9.538;2024-02-23T10:33:45;7.07;;;1.83;;
78718;SDS011;68046;53.334;9.538;2024-02-23T10:36:10;5.22;;;1.90;;
78718;SDS011;68046;53.334;9.538;2024-02-23T10:38:40;3.03;;;1.20;;
78718;SDS011;68046;53.334;9.538;2024-02-23T10:41:09;6.70;;;1.67;;
78718;SDS011;68046;53.334;9.538;2024-02-23T10:43:41;6.10;;;1.60;;
78718;SDS011;68046;53.334;9.538;2024-02-23T10:46:10;9.68;;;1.92;;
78718;SDS011;68046;53.334;9.538;2024-02-23T10:48:38;3.97;;;1.13;;
78718;SDS011;68046;53.334;9.538;2024-02-23T10:51:05;2.47;;;1.65;;
78718;SDS011;68046;53.334;9.538;2024-02-23T10:53:32;2.92;;;1.63;;
78718;SDS011;68046;53.334;9.538;2024-02-23T10:55:59;7.15;;;1.67;;
78718;SDS011;68046;53.334;9.538;2024-02-23T10:58:25;4.43;;;1.08;;
78718;SDS011;68046;53.334;9.538;2024-02-23T11:00:51;3.47;;;1.50;;
78718;SDS011;68046;53.334;9.538;2024-02-23T11:03:17;6.03;;;1.27;;
78718;SDS011;68046;53.334;9.538;2024-02-23T11:05:48;9.75;;;2.00;;
78718;SDS011;68046;53.334;9.538;2024-02-23T11:08:13;3.90;;;1.48;;
78718;SDS011;68046;53.334;9.538;2024-02-23T11:10:42;5.30;;;2.10;;
78718;SDS011;68046;53.334;9.538;2024-02-23T11:13:08;13.90;;;2.75;;
78718;SDS011;68046;53.334;9.538;2024-02-23T11:15:34;5.90;;;1.85;;
78718;SDS011;68046;53.334;9.538;2024-02-23T11:17:59;5.28;;;1.50;;
78718;SDS011;68046;53.334;9.538;2024-02-23T11:20:33;4.95;;;1.63;;
78718;SDS011;68046;53.334;9.538;2024-02-23T11:23:00;1.60;;;1.00;;
78718;SDS011;68046;53.334;9.538;2024-02-23T11:25:26;4.10;;;1.17;;
78718;SDS011;68046;53.334;9.538;2024-02-23T11:27:52;5.07;;;1.40;;
78718;SDS011;68046;53.334;9.538;2024-02-23T11:30:17;5.10;;;1.30;;
78718;SDS011;68046;53.334;9.538;2024-02-23T11:32:44;4.00;;;1.08;;
78718;SDS011;68046;53.334;9.538;2024-02-23T11:35:11;8.90;;;2.15;;
78718;SDS011;68046;53.334;9.538;2024-02-23T11:37:46;1.35;;;1.20;;
78718;SDS011;68046;53.334;9.538;2024-02-23T11:40:14;2.00;;;0.88;;
78718;SDS011;68046;53.334;9.538;2024-02-23T11:42:40;4.13;;;1.27;;
78718;SDS011;68046;53.334;9.538;2024-02-23T11:45:07;6.13;;;1.58;;
78718;SDS011;68046;53.334;9.538;2024-02-23T11:47:33;11.65;;;1.77;;
78718;SDS011;68046;53.334;9.538;2024-02-23T11:49:58;1.58;;;0.93;;
78718;SDS011;68046;53.334;9.538;2024-02-23T11:52:24;1.20;;;0.85;;
78718;SDS011;68046;53.334;9.538;2024-02-23T11:54:49;4.38;;;1.27;;
78718;SDS011;68046;53.334;9.538;2024-02-23T11:57:16;8.25;;;1.85;;
78718;SDS011;68046;53.334;9.538;2024-02-23T11:59:42;3.20;;;1.63;;
78718;SDS011;68046;53.334;9.538;2024-02-23T12:02:08;4.40;;;1.15;;
78718;SDS011;68046;53.334;9.538;2024-02-23T12:04:34;1.02;;;0.93;;
78718;SDS011;68046;53.334;9.538;2024-02-23T12:07:00;1.98;;;0.90;;
78718;SDS011;68046;53.334;9.538;2024-02-23T12:09:25;2.15;;;1.20;;
78718;SDS011;68046;53.334;9.538;2024-02-23T12:11:51;4.50;;;1.75;;
78718;SDS011;68046;53.334;9.538;2024-02-23T12:14:18;3.10;;;1.10;;
78718;SDS011;68046;53.334;9.538;2024-02-23T12:16:44;4.43;;;1.50;;
78718;SDS011;68046;53.334;9.538;2024-02-23T12:19:10;2.72;;;1.38;;
78718;SDS011;68046;53.334;9.538;2024-02-23T12:21:35;2.45;;;1.10;;
78718;SDS011;68046;53.334;9.538;2024-02-23T12:24:03;3.70;;;1.30;;
78718;SDS011;68046;53.334;9.538;2024-02-23T12:26:29;2.75;;;1.23;;
78718;SDS011;68046;53.334;9.538;2024-02-23T12:28:59;6.50;;;1.45;;
78718;SDS011;68046;53.334;9.538;2024-02-23T12:31:27;5.85;;;1.80;;
78718;SDS011;68046;53.334;9.538;2024-02-23T12:33:52;4.07;;;1.70;;
78718;SDS011;68046;53.334;9.538;2024-02-23T12:36:18;4.43;;;1.13;;
78718;SDS011;68046;53.334;9.538;2024-02-23T12:38:43;3.60;;;1.40;;
78718;SDS011;68046;53.334;9.538;2024-02-23T12:41:09;1.50;;;1.00;;
78718;SDS011;68046;53.334;9.538;2024-02-23T12:43:34;3.25;;;1.00;;
78718;SDS011;68046;53.334;9.538;2024-02-23T12:46:00;8.93;;;1.58;;
78718;SDS011;68046;53.334;9.538;2024-02-23T12:48:27;2.22;;;0.90;;
78718;SDS011;68046;53.334;9.538;2024-02-23T12:50:52;2.65;;;1.40;;
78718;SDS011;68046;53.334;9.538;2024-02-23T12:53:30;3.63;;;1.05;;
78718;SDS011;68046;53.334;9.538;2024-02-23T12:55:56;5.50;;;1.00;;
78718;SDS011;68046;53.334;9.538;2024-02-23T12:58:22;4.32;;;1.40;;
78718;SDS011;68046;53.334;9.538;2024-02-23T13:00:48;2.42;;;0.98;;
78718;SDS011;68046;53.334;9.538;2024-02-23T13:03:13;3.30;;;1.25;;
78718;SDS011;68046;53.334;9.538;2024-02-23T13:05:40;1.27;;;0.93;;
78718;SDS011;68046;53.334;9.538;2024-02-23T13:08:06;2.03;;;1.00;;
78718;SDS011;68046;53.334;9.538;2024-02-23T13:10:31;5.97;;;1.50;;
78718;SDS011;68046;53.334;9.538;2024-02-23T13:12:57;3.05;;;0.90;;
78718;SDS011;68046;53.334;9.538;2024-02-23T13:15:22;5.10;;;1.33;;
78718;SDS011;68046;53.334;9.538;2024-02-23T13:17:47;1.20;;;1.00;;
78718;SDS011;68046;53.334;9.538;2024-02-23T13:20:13;2.15;;;1.15;;
78718;SDS011;68046;53.334;9.538;2024-02-23T13:22:40;3.05;;;1.10;;
78718;SDS011;68046;53.334;9.538;2024-02-23T13:25:06;1.90;;;1.08;;
78718;SDS011;68046;53.334;9.538;2024-02-23T13:27:32;3.13;;;1.25;;
78718;SDS011;68046;53.334;9.538;2024-02-23T13:29:57;3.20;;;1.50;;
78718;SDS011;68046;53.334;9.538;2024-02-23T13:32:23;3.13;;;0.68;;
78718;SDS011;68046;53.334;9.538;2024-02-23T13:34:48;1.95;;;0.77;;
78718;SDS011;68046;53.334;9.538;2024-02-23T13:37:14;1.38;;;0.70;;
78718;SDS011;68046;53.334;9.538;2024-02-23T13:39:41;3.00;;;1.33;;
78718;SDS011;68046;53.334;9.538;2024-02-23T13:42:06;1.30;;;0.77;;
78718;SDS011;68046;53.334;9.538;2024-02-23T13:44:32;1.30;;;1.10;;
78718;SDS011;68046;53.334;9.538;2024-02-23T13:46:57;5.60;;;1.30;;
78718;SDS011;68046;53.334;9.538;2024-02-23T13:49:23;5.22;;;1.10;;
78718;SDS011;68046;53.334;9.538;2024-02-23T13:51:48;2.83;;;0.90;;
78718;SDS011;68046;53.334;9.538;2024-02-23T13:54:14;2.50;;;0.70;;
78718;SDS011;68046;53.334;9.538;2024-02-23T13:56:41;4.20;;;0.98;;
78718;SDS011;68046;53.334;9.538;2024-02-23T13:59:06;2.28;;;0.95;;
78718;SDS011;68046;53.334;9.538;2024-02-23T14:01:32;1.67;;;1.20;;
78718;SDS011;68046;53.334;9.538;2024-02-23T14:03:57;4.55;;;1.50;;
78718;SDS011;68046;53.334;9.538;2024-02-23T14:06:23;4.50;;;1.25;;
78718;SDS011;68046;53.334;9.538;2024-02-23T14:08:48;2.00;;;0.90;;
78718;SDS011;68046;53.334;9.538;2024-02-23T14:11:14;0.90;;;0.65;;
78718;SDS011;68046;53.334;9.538;2024-02-23T14:13:40;1.10;;;0.95;;
78718;SDS011;68046;53.334;9.538;2024-02-23T14:16:06;3.28;;;1.02;;
78718;SDS011;68046;53.334;9.538;2024-02-23T14:18:32;4.63;;;0.88;;
78718;SDS011;68046;53.334;9.538;2024-02-23T14:20:57;4.75;;;1.60;;
78718;SDS011;68046;53.334;9.538;2024-02-23T14:23:23;3.50;;;1.55;;
78718;SDS011;68046;53.334;9.538;2024-02-23T14:25:48;2.85;;;1.02;;
78718;SDS011;68046;53.334;9.538;2024-02-23T14:28:14;3.75;;;1.15;;
78718;SDS011;68046;53.334;9.538;2024-02-23T14:30:40;3.72;;;1.13;;
78718;SDS011;68046;53.334;9.538;2024-02-23T14:33:06;2.50;;;1.15;;
78718;SDS011;68046;53.334;9.538;2024-02-23T14:35:31;6.90;;;1.42;;
78718;SDS011;68046;53.334;9.538;2024-02-23T14:37:57;3.10;;;0.85;;
78718;SDS011;68046;53.334;9.538;2024-02-23T14:40:22;1.60;;;1.20;;